Time;durP1;ratioP1;P1;durP2;ratioP2;P2;SDS_P1;SDS_P2;PMS_P1;PMS_P2;Temp;Humidity;BMP_temperature;BMP_pressure;BME280_temperature;BME280_humidity;BME280_pressure;Samples;Min_cycle;Max_cycle;Signal;HPM_P1;HPM_P2
2022/12/20 00:00:43;;;;;;;64.05;21.42;;;-1.30;99.90;;;;;;4957260;29;20066;-65
2022/12/20 00:03:09;;;;;;;61.80;22.40;;;-1.40;99.90;;;;;;4957161;29;20030;-65
2022/12/20 00:05:39;;;;;;;62.45;21.05;;;-1.40;99.90;;;;;;4957073;29;20027;-66
2022/12/20 00:08:05;;;;;;;71.60;24.58;;;-1.40;99.90;;;;;;4956963;29;20047;-65
2022/12/20 00:10:35;;;;;;;59.50;22.40;;;-1.40;99.90;;;;;;4939762;29;20031;-65
2022/12/20 00:13:01;;;;;;;67.93;21.20;;;-1.40;99.90;;;;;;4939717;29;20046;-65
2022/12/20 00:15:27;;;;;;;71.78;22.63;;;-1.20;99.90;;;;;;4939579;29;20464;-66
2022/12/20 00:17:52;;;;;;;61.38;21.38;;;-1.30;99.90;;;;;;4957163;29;20031;-66
2022/12/20 00:20:18;;;;;;;65.25;21.92;;;-1.30;99.90;;;;;;4956804;29;20468;-66
2022/12/20 00:22:44;;;;;;;59.08;22.30;;;-0.40;99.90;;;;;;4939250;29;20031;-66
2022/12/20 00:25:10;;;;;;;61.33;21.40;;;-0.50;99.90;;;;;;4939593;29;20126;-65
2022/12/20 00:27:36;;;;;;;67.20;22.40;;;-1.30;99.90;;;;;;4957234;29;20472;-66
2022/12/20 00:30:02;;;;;;;58.70;21.33;;;-1.10;99.90;;;;;;4956638;29;20027;-65
2022/12/20 00:32:27;;;;;;;72.18;23.08;;;-1.30;99.90;;;;;;4939421;29;20114;-65
2022/12/20 00:34:53;;;;;;;63.75;21.70;;;-1.30;99.90;;;;;;4939356;29;20055;-65
2022/12/20 00:37:18;;;;;;;62.58;19.45;;;-1.30;99.90;;;;;;4956618;29;20031;-66
2022/12/20 00:39:44;;;;;;;66.47;21.33;;;-1.30;99.90;;;;;;4938596;29;20038;-66
2022/12/20 00:42:10;;;;;;;64.00;21.63;;;-1.30;99.90;;;;;;4956526;29;20388;-66
2022/12/20 00:44:35;;;;;;;72.78;23.13;;;-1.30;99.90;;;;;;4956126;29;20027;-66
2022/12/20 00:47:01;;;;;;;64.05;23.08;;;-1.30;99.90;;;;;;4956370;29;20110;-66
2022/12/20 00:49:26;;;;;;;59.22;20.23;;;-1.30;99.90;;;;;;4956273;29;20195;-66
2022/12/20 00:51:52;;;;;;;61.53;22.15;;;-1.20;99.90;;;;;;4939056;29;20588;-66
2022/12/20 00:54:18;;;;;;;61.70;21.40;;;-1.20;99.90;;;;;;4956487;29;20031;-66
2022/12/20 00:56:44;;;;;;;64.55;22.23;;;-1.30;99.90;;;;;;4939075;29;20031;-66
2022/12/20 00:59:09;;;;;;;62.28;21.98;;;-1.20;99.90;;;;;;4956225;29;20495;-65
2022/12/20 01:01:35;;;;;;;69.35;23.35;;;-1.20;99.90;;;;;;4938961;29;20031;-66
2022/12/20 01:04:02;;;;;;;69.88;22.60;;;-1.20;99.90;;;;;;4938580;29;20031;-66
2022/12/20 01:06:29;;;;;;;66.00;22.38;;;-1.20;99.90;;;;;;4956174;29;20412;-65
2022/12/20 01:08:55;;;;;;;64.90;22.33;;;-1.10;99.90;;;;;;4955963;29;20106;-65
2022/12/20 01:11:23;;;;;;;66.65;22.83;;;-1.20;99.90;;;;;;4956245;29;20027;-66
2022/12/20 01:13:52;;;;;;;70.75;23.00;;;-1.30;99.90;;;;;;4955836;29;20023;-66
2022/12/20 01:16:17;;;;;;;64.88;23.80;;;-1.30;99.90;;;;;;4939423;29;20039;-66
2022/12/20 01:18:44;;;;;;;65.68;22.08;;;-1.30;99.90;;;;;;4956206;29;20035;-66
2022/12/20 01:21:12;;;;;;;67.68;22.77;;;-0.80;99.90;;;;;;4956203;29;20027;-66
2022/12/20 01:23:38;;;;;;;70.53;21.92;;;-1.30;99.90;;;;;;4956026;29;20027;-66
2022/12/20 01:26:08;;;;;;;63.03;21.70;;;-0.90;99.90;;;;;;4938657;29;20035;-65
2022/12/20 01:28:35;;;;;;;70.80;22.65;;;-1.30;99.90;;;;;;4939327;29;20122;-66
2022/12/20 01:31:00;;;;;;;62.40;21.38;;;-1.20;99.90;;;;;;4938515;29;20023;-66
2022/12/20 01:33:26;;;;;;;62.42;21.73;;;-1.10;99.90;;;;;;4938657;29;20391;-66
2022/12/20 01:36:00;;;;;;;69.63;22.75;;;-1.30;99.90;;;;;;4955599;29;20039;-66
2022/12/20 01:38:27;;;;;;;71.28;23.13;;;-1.30;99.90;;;;;;4940445;29;20059;-71
2022/12/20 01:40:54;;;;;;;63.65;22.40;;;-1.30;99.90;;;;;;4941982;29;20066;-66
2022/12/20 01:43:21;;;;;;;68.15;23.25;;;-1.30;99.90;;;;;;4957491;29;20034;-66
2022/12/20 01:45:47;;;;;;;67.93;22.23;;;-1.30;99.90;;;;;;4938811;29;20110;-66
2022/12/20 01:48:17;;;;;;;63.72;23.42;;;-1.30;99.90;;;;;;4938482;29;20464;-66
2022/12/20 01:50:44;;;;;;;68.35;21.40;;;-1.30;99.90;;;;;;4957161;28;20019;-66
2022/12/20 01:53:10;;;;;;;70.95;21.23;;;-1.30;99.90;;;;;;4942071;29;20031;-66
2022/12/20 01:55:36;;;;;;;67.55;20.85;;;-1.30;99.90;;;;;;4959174;29;20472;-66
2022/12/20 01:58:11;;;;;;;70.45;22.13;;;-1.20;99.90;;;;;;4942197;29;20391;-66
2022/12/20 02:00:36;;;;;;;79.15;24.27;;;-1.20;99.90;;;;;;4942237;29;20031;-66
2022/12/20 02:03:08;;;;;;;77.10;24.10;;;-1.20;99.90;;;;;;4959215;29;20042;-66
2022/12/20 02:05:44;;;;;;;61.90;21.38;;;-1.20;99.90;;;;;;4959407;29;20027;-66
2022/12/20 02:08:12;;;;;;;68.60;23.23;;;-1.20;99.90;;;;;;4959347;29;20043;-66
2022/12/20 02:10:58;;;;;;;71.22;22.75;;;-0.80;99.90;;;;;;4961110;29;20022;-66
2022/12/20 02:13:42;;;;;;;70.35;21.90;;;-1.20;99.90;;;;;;4961621;29;20110;-66
2022/12/20 02:16:11;;;;;;;75.47;24.30;;;-1.20;99.90;;;;;;4943810;29;20028;-66
2022/12/20 02:19:00;;;;;;;75.10;24.35;;;-1.20;99.90;;;;;;4958912;29;20042;-66
2022/12/20 02:21:39;;;;;;;77.50;25.13;;;-1.20;99.90;;;;;;4959229;29;20168;-65
2022/12/20 02:24:26;;;;;;;68.60;22.48;;;-1.20;99.90;;;;;;4959237;29;20063;-66
2022/12/20 02:27:23;;;;;;;79.32;23.23;;;-1.20;99.90;;;;;;4958881;29;20364;-66
2022/12/20 02:30:04;;;;;;;70.72;22.08;;;-1.20;99.90;;;;;;4958989;29;20031;-66
2022/12/20 02:33:06;;;;;;;70.18;23.70;;;-1.20;99.90;;;;;;4958511;29;20102;-66
2022/12/20 02:35:36;;;;;;;72.30;22.83;;;-1.20;99.90;;;;;;4957904;29;20073;-65
2022/12/20 02:38:23;;;;;;;68.50;22.83;;;-1.20;99.90;;;;;;4958873;29;20031;-65
2022/12/20 02:40:52;;;;;;;72.30;22.52;;;-1.20;99.90;;;;;;4941523;29;20027;-66
2022/12/20 02:46:04;;;;;;;68.53;22.38;;;-1.10;99.90;;;;;;4958302;29;20038;-65
2022/12/20 02:48:34;;;;;;;66.53;23.35;;;-1.20;99.90;;;;;;4941243;29;20388;-65
2022/12/20 02:51:02;;;;;;;62.40;21.98;;;-1.10;99.90;;;;;;4958485;29;20030;-66
2022/12/20 02:53:28;;;;;;;59.00;22.13;;;-1.20;99.90;;;;;;4941212;29;20364;-66
2022/12/20 02:56:15;;;;;;;69.60;22.67;;;-1.20;99.90;;;;;;4941093;29;20290;-66
2022/12/20 02:59:00;;;;;;;59.33;20.40;;;-1.10;99.90;;;;;;4958237;29;20036;-66
2022/12/20 03:01:37;;;;;;;64.05;22.40;;;-1.20;99.90;;;;;;4958205;28;20027;-66
2022/12/20 03:04:04;;;;;;;73.60;22.85;;;-1.20;99.90;;;;;;4957835;29;20032;-66
2022/12/20 03:06:30;;;;;;;63.53;20.38;;;-1.20;99.90;;;;;;4958165;29;20491;-66
2022/12/20 03:08:56;;;;;;;66.40;23.20;;;-1.20;99.90;;;;;;4957828;29;20047;-66
2022/12/20 03:11:22;;;;;;;65.38;23.88;;;-1.10;99.90;;;;;;4958330;29;20090;-66
2022/12/20 03:13:48;;;;;;;72.93;21.80;;;-1.10;99.90;;;;;;4958077;29;20023;-66
2022/12/20 03:16:14;;;;;;;69.97;23.73;;;-1.10;99.90;;;;;;4957994;29;20390;-65
2022/12/20 03:18:39;;;;;;;64.53;24.10;;;-1.10;99.90;;;;;;4957753;29;20035;-66
2022/12/20 03:21:05;;;;;;;70.43;22.45;;;-1.10;99.90;;;;;;4957968;29;20031;-66
2022/12/20 03:23:31;;;;;;;62.35;21.15;;;-0.90;99.90;;;;;;4940936;29;20110;-66
2022/12/20 03:25:57;;;;;;;57.38;21.27;;;-1.10;99.90;;;;;;4940675;29;20082;-65
2022/12/20 03:28:22;;;;;;;68.30;20.85;;;-0.50;99.90;;;;;;4957999;29;20026;-66
2022/12/20 03:30:48;;;;;;;63.65;20.85;;;-1.10;99.90;;;;;;4940515;29;20034;-66
2022/12/20 03:33:14;;;;;;;57.90;21.00;;;-1.10;99.90;;;;;;4940740;29;20032;-66
2022/12/20 03:35:40;;;;;;;67.38;22.92;;;-1.10;99.90;;;;;;4957328;29;20403;-65
2022/12/20 03:38:06;;;;;;;58.30;19.45;;;-0.90;99.90;;;;;;4940506;29;20031;-66
2022/12/20 03:40:31;;;;;;;61.17;21.50;;;-1.10;99.90;;;;;;4940392;29;20460;-66
2022/12/20 03:42:57;;;;;;;65.65;22.85;;;-1.00;99.90;;;;;;4957539;29;20027;-65
2022/12/20 03:45:22;;;;;;;65.47;21.08;;;-1.10;99.90;;;;;;4957502;29;20024;-66
2022/12/20 03:47:48;;;;;;;67.28;22.10;;;-1.10;99.90;;;;;;4957630;29;20034;-66
2022/12/20 03:50:14;;;;;;;69.32;21.17;;;-1.10;99.90;;;;;;4957247;29;20041;-66
2022/12/20 03:52:39;;;;;;;63.78;22.88;;;-1.10;99.90;;;;;;4940119;29;20027;-66
2022/12/20 03:55:06;;;;;;;63.20;20.70;;;-1.10;99.90;;;;;;4957577;29;20027;-66
2022/12/20 03:57:31;;;;;;;70.40;22.98;;;-1.10;99.90;;;;;;4957408;29;20035;-66
2022/12/20 03:59:57;;;;;;;59.58;21.92;;;-0.70;99.90;;;;;;4939988;29;20130;-66
2022/12/20 04:02:23;;;;;;;61.67;22.90;;;-1.10;99.90;;;;;;4957117;29;20027;-66
2022/12/20 04:04:49;;;;;;;67.20;22.45;;;-1.10;99.90;;;;;;4957132;29;20066;-65
2022/12/20 04:07:15;;;;;;;65.00;23.40;;;-1.00;99.90;;;;;;4957148;29;20054;-66
2022/12/20 04:09:40;;;;;;;70.07;22.23;;;-1.10;99.90;;;;;;4956700;29;20047;-66
2022/12/20 04:12:07;;;;;;;62.67;22.33;;;-1.10;99.90;;;;;;4956741;29;20042;-66
2022/12/20 04:14:32;;;;;;;68.80;22.30;;;-1.10;99.90;;;;;;4939500;29;20086;-66
2022/12/20 04:16:58;;;;;;;71.60;25.20;;;-1.00;99.90;;;;;;4956862;29;20031;-66
2022/12/20 04:19:25;;;;;;;63.50;22.00;;;-0.60;99.90;;;;;;4956761;29;20047;-66
2022/12/20 04:21:50;;;;;;;79.93;25.75;;;-1.10;99.90;;;;;;4956816;29;20098;-66
2022/12/20 04:24:16;;;;;;;62.20;21.00;;;-1.10;99.90;;;;;;4956914;29;20423;-66
2022/12/20 04:26:42;;;;;;;66.53;22.83;;;-1.10;99.90;;;;;;4939471;29;20031;-65
2022/12/20 04:29:07;;;;;;;72.85;21.73;;;-1.10;99.90;;;;;;4939596;29;20054;-66
2022/12/20 04:31:33;;;;;;;69.70;23.00;;;-1.00;99.90;;;;;;4957051;29;20035;-66
2022/12/20 04:33:58;;;;;;;65.45;22.65;;;-1.00;99.90;;;;;;4939463;29;20031;-65
2022/12/20 04:36:24;;;;;;;68.20;23.02;;;-1.00;99.90;;;;;;4956492;29;20383;-65
2022/12/20 04:38:50;;;;;;;60.65;23.60;;;-0.80;99.90;;;;;;4956739;29;20476;-66
2022/12/20 04:41:21;;;;;;;73.07;23.52;;;-1.00;99.90;;;;;;4956504;29;20108;-66
2022/12/20 04:43:55;;;;;;;70.95;22.50;;;-1.00;99.90;;;;;;4939320;29;20038;-66
2022/12/20 04:46:22;;;;;;;61.85;22.25;;;-1.00;99.90;;;;;;4956600;29;20043;-65
2022/12/20 04:48:48;;;;;;;69.57;22.70;;;-1.00;99.90;;;;;;4939121;29;20062;-66
2022/12/20 04:51:14;;;;;;;64.05;22.38;;;-0.80;99.90;;;;;;4939137;29;20075;-65
2022/12/20 04:53:46;;;;;;;68.82;23.67;;;-1.00;99.90;;;;;;4939011;29;20102;-65
2022/12/20 04:56:17;;;;;;;76.13;23.60;;;-1.00;99.90;;;;;;4956202;29;20428;-66
2022/12/20 04:58:43;;;;;;;66.32;24.65;;;-1.00;99.90;;;;;;4956275;29;20027;-65
2022/12/20 05:01:09;;;;;;;62.63;23.08;;;-0.90;99.90;;;;;;4956117;29;20023;-65
2022/12/20 05:03:34;;;;;;;64.03;22.52;;;-1.00;99.90;;;;;;4956100;29;20031;-66
2022/12/20 05:06:00;;;;;;;62.00;23.55;;;-1.00;99.90;;;;;;4956056;29;20042;-71
2022/12/20 05:08:26;;;;;;;76.38;24.15;;;-1.00;99.90;;;;;;4955845;29;20059;-66
2022/12/20 05:10:52;;;;;;;70.18;23.52;;;-0.80;99.90;;;;;;4956239;29;20117;-66
2022/12/20 05:13:17;;;;;;;68.70;24.58;;;-1.00;99.90;;;;;;4938764;29;20028;-66
2022/12/20 05:15:43;;;;;;;68.55;23.25;;;-1.00;99.90;;;;;;4956963;29;20082;-67
2022/12/20 05:18:09;;;;;;;62.35;23.35;;;-1.00;99.90;;;;;;4959096;29;20031;-66
2022/12/20 05:20:35;;;;;;;75.82;24.98;;;-1.00;99.90;;;;;;4958231;29;20502;-66
2022/12/20 05:28:33;;;;;;;63.50;23.08;;;-1.00;99.90;;;;;;4956098;29;20038;-65
2022/12/20 05:30:59;;;;;;;61.80;21.85;;;-1.00;99.90;;;;;;4955785;29;20050;-65
2022/12/20 05:33:26;;;;;;;68.05;22.88;;;-0.90;99.90;;;;;;4955783;29;20031;-65
2022/12/20 05:35:51;;;;;;;64.13;22.83;;;-1.00;99.90;;;;;;4938952;29;20130;-65
2022/12/20 05:38:17;;;;;;;73.78;22.77;;;-1.00;99.90;;;;;;4938706;29;20078;-65
2022/12/20 05:40:43;;;;;;;62.53;22.67;;;-1.00;99.90;;;;;;4955669;29;20050;-65
2022/12/20 05:43:08;;;;;;;62.28;21.15;;;-1.00;99.90;;;;;;4955670;29;20094;-65
2022/12/20 05:45:34;;;;;;;70.15;23.10;;;-0.80;99.90;;;;;;4938369;29;20460;-65
2022/12/20 05:48:00;;;;;;;63.75;22.08;;;-1.00;99.90;;;;;;4955365;29;20027;-65
2022/12/20 05:50:26;;;;;;;76.47;24.73;;;-0.80;99.90;;;;;;4955630;29;20082;-65
2022/12/20 05:52:52;;;;;;;71.72;23.83;;;-0.90;99.90;;;;;;4955438;29;20031;-65
2022/12/20 05:55:17;;;;;;;66.75;23.25;;;-0.90;99.90;;;;;;4955849;29;20031;-66
2022/12/20 05:57:43;;;;;;;71.35;25.05;;;-1.00;99.90;;;;;;4954834;29;20035;-65
2022/12/20 06:00:10;;;;;;;69.50;22.95;;;-1.00;99.90;;;;;;4937760;29;20032;-66
2022/12/20 06:02:36;;;;;;;82.75;28.20;;;-1.00;99.90;;;;;;4954703;29;20038;-66
2022/12/20 06:05:01;;;;;;;69.90;24.13;;;-1.00;99.90;;;;;;4955843;29;20024;-66
2022/12/20 06:07:30;;;;;;;69.47;23.52;;;-1.00;99.90;;;;;;4955525;29;20023;-67
2022/12/20 06:09:56;;;;;;;;;;;-1.00;99.90;;;;;;4956653;29;20545;-67
2022/12/20 06:12:22;;;;;;;74.32;26.52;;;-1.00;99.90;;;;;;4956415;29;19906;-67
2022/12/20 06:14:48;;;;;;;69.32;24.20;;;-1.00;99.90;;;;;;4956587;29;20380;-67
2022/12/20 06:17:13;;;;;;;68.82;23.67;;;-1.00;99.90;;;;;;4955608;29;20118;-67
2022/12/20 06:19:40;;;;;;;76.53;26.08;;;-0.90;99.90;;;;;;4938179;29;20042;-66
2022/12/20 06:22:07;;;;;;;82.25;26.55;;;-1.00;99.90;;;;;;4938360;29;20488;-67
2022/12/20 06:24:34;;;;;;;76.55;24.55;;;-1.00;99.90;;;;;;4938080;29;20029;-67
2022/12/20 06:26:59;;;;;;;74.05;25.63;;;-1.00;99.90;;;;;;4955054;29;20031;-67
2022/12/20 06:29:25;;;;;;;82.75;25.75;;;-1.00;99.90;;;;;;4955330;29;20023;-67
2022/12/20 06:31:51;;;;;;;82.00;26.40;;;-1.00;99.90;;;;;;4955518;29;20103;-67
2022/12/20 06:34:17;;;;;;;78.47;26.60;;;-1.00;99.90;;;;;;4955316;29;20024;-67
2022/12/20 06:36:43;;;;;;;75.60;26.38;;;-1.00;99.90;;;;;;4956145;28;20067;-69
2022/12/20 06:39:09;;;;;;;86.50;27.02;;;-1.00;99.90;;;;;;4942080;29;20035;-69
2022/12/20 06:41:36;;;;;;;89.38;28.65;;;-1.00;99.90;;;;;;4941920;29;20063;-69
2022/12/20 06:44:02;;;;;;;80.90;26.60;;;-1.00;99.90;;;;;;4941939;29;20042;-69
2022/12/20 06:46:27;;;;;;;84.40;25.13;;;-1.00;99.90;;;;;;4959213;29;20114;-69
2022/12/20 06:48:55;;;;;;;94.10;28.20;;;-1.00;99.90;;;;;;4958712;29;20110;-68
2022/12/20 06:51:21;;;;;;;86.88;27.80;;;-1.00;99.90;;;;;;4958826;29;20063;-68
2022/12/20 06:53:46;;;;;;;94.35;29.25;;;-1.00;99.90;;;;;;4941642;29;20031;-68
2022/12/20 06:56:12;;;;;;;86.28;27.63;;;-1.10;99.90;;;;;;4941269;29;20035;-68
2022/12/20 06:58:38;;;;;;;80.35;27.17;;;-1.00;99.90;;;;;;4958895;29;20042;-68
2022/12/20 07:01:03;;;;;;;82.63;26.40;;;-1.10;99.90;;;;;;4941693;29;20182;-69
2022/12/20 07:03:29;;;;;;;90.97;28.17;;;-1.10;99.90;;;;;;4958071;29;20027;-68
2022/12/20 07:05:55;;;;;;;89.95;27.30;;;-1.10;99.90;;;;;;4942311;29;20027;-69
2022/12/20 07:08:22;;;;;;;81.45;26.48;;;-1.10;99.90;;;;;;4941802;29;20070;-68
2022/12/20 07:10:48;;;;;;;99.82;28.35;;;-1.10;99.90;;;;;;4959672;29;20423;-71
2022/12/20 07:13:14;;;;;;;83.65;26.27;;;-1.10;99.90;;;;;;4959671;29;20027;-68
2022/12/20 07:15:39;;;;;;;76.85;24.88;;;-0.70;99.90;;;;;;4942039;29;20079;-71
2022/12/20 07:18:05;;;;;;;85.18;27.13;;;-1.10;99.90;;;;;;4959751;29;20027;-72
2022/12/20 07:20:32;;;;;;;81.07;27.70;;;0.00;99.90;;;;;;4942421;29;20024;-71
2022/12/20 07:22:57;;;;;;;89.35;26.85;;;-0.80;99.90;;;;;;4958868;29;20098;-71
2022/12/20 07:25:24;;;;;;;87.10;26.83;;;-0.70;99.90;;;;;;4958496;29;20480;-71
2022/12/20 07:27:50;;;;;;;87.90;27.95;;;-1.10;99.90;;;;;;4958496;29;20031;-72
2022/12/20 07:30:18;;;;;;;92.90;26.88;;;-1.10;99.90;;;;;;4941579;29;20027;-72
2022/12/20 07:32:44;;;;;;;86.28;27.00;;;0.20;99.90;;;;;;4958188;29;20058;-67
2022/12/20 07:35:10;;;;;;;91.20;27.92;;;-1.10;99.90;;;;;;4940884;29;20115;-67
2022/12/20 07:37:37;;;;;;;101.35;30.02;;;-0.90;99.90;;;;;;4940625;29;20039;-68
2022/12/20 07:40:04;;;;;;;91.22;26.17;;;-0.90;99.90;;;;;;4957958;29;20027;-68
2022/12/20 07:42:29;;;;;;;96.47;29.20;;;-1.00;99.90;;;;;;4958413;29;20460;-69
2022/12/20 07:44:55;;;;;;;101.43;28.95;;;-1.00;99.90;;;;;;4957771;29;20034;-67
2022/12/20 07:47:21;;;;;;;97.20;29.98;;;-1.00;99.90;;;;;;4957615;29;20500;-67
2022/12/20 07:49:48;;;;;;;92.10;28.58;;;-1.00;99.90;;;;;;4957063;28;20035;-67
2022/12/20 07:52:16;;;;;;;94.22;28.42;;;-1.00;99.90;;;;;;4940243;29;20121;-68
2022/12/20 07:54:49;;;;;;;95.28;28.05;;;-1.00;99.90;;;;;;4940298;29;20114;-68
2022/12/20 07:57:23;;;;;;;89.03;26.27;;;-1.00;99.90;;;;;;4957032;29;20039;-67
2022/12/20 07:59:53;;;;;;;88.18;29.08;;;-0.90;99.90;;;;;;4957480;29;20030;-68
2022/12/20 08:02:34;;;;;;;92.68;26.38;;;-0.90;99.90;;;;;;4939921;29;20046;-67
2022/12/20 08:05:00;;;;;;;85.18;27.38;;;-0.90;99.90;;;;;;4957496;29;20148;-67
2022/12/20 08:07:28;;;;;;;95.63;29.45;;;-0.90;99.90;;;;;;4956809;29;20468;-67
2022/12/20 08:09:54;;;;;;;103.43;30.65;;;-0.90;99.90;;;;;;4938262;29;20469;-67
2022/12/20 08:12:21;;;;;;;104.90;29.33;;;-0.80;99.90;;;;;;4937555;29;20034;-67
2022/12/20 08:14:47;;;;;;;92.25;28.92;;;-0.80;99.90;;;;;;4936607;29;20036;-67
2022/12/20 08:17:13;;;;;;;100.45;28.25;;;-0.80;99.90;;;;;;4937661;29;20035;-67
2022/12/20 08:19:38;;;;;;;88.50;27.52;;;-0.80;99.90;;;;;;4936900;29;20460;-68
2022/12/20 08:22:05;;;;;;;83.65;26.83;;;-0.60;99.90;;;;;;4937681;29;20475;-67
2022/12/20 08:24:33;;;;;;;85.45;26.35;;;-0.50;99.90;;;;;;4936540;29;20493;-69
2022/12/20 08:26:59;;;;;;;93.70;27.70;;;-0.80;99.90;;;;;;4937871;29;20079;-70
2022/12/20 08:29:25;;;;;;;84.40;27.08;;;-0.60;99.90;;;;;;4937364;29;20036;-69
2022/12/20 08:31:51;;;;;;;98.07;28.45;;;-0.80;99.90;;;;;;4937763;29;20397;-69
2022/12/20 08:34:17;;;;;;;94.97;28.70;;;-0.80;99.90;;;;;;4937758;29;20190;-70
2022/12/20 08:36:42;;;;;;;104.18;31.95;;;-0.80;99.90;;;;;;4937604;29;20035;-69
2022/12/20 08:39:10;;;;;;;87.13;28.13;;;-0.70;99.90;;;;;;4936259;29;20070;-70
2022/12/20 08:41:36;;;;;;;96.75;28.73;;;-0.80;99.90;;;;;;4936657;29;20039;-70
2022/12/20 08:44:03;;;;;;;80.90;27.98;;;-0.70;99.90;;;;;;4937697;29;20448;-70
2022/12/20 08:46:28;;;;;;;92.93;30.85;;;-0.70;99.90;;;;;;4937669;29;20039;-70
2022/12/20 08:48:54;;;;;;;92.90;26.35;;;-0.70;99.90;;;;;;4937413;29;20520;-70
2022/12/20 08:51:19;;;;;;;86.35;26.95;;;-0.50;99.90;;;;;;4937504;29;20471;-71
2022/12/20 08:53:45;;;;;;;84.40;25.73;;;-0.70;99.90;;;;;;4936344;29;20110;-72
2022/12/20 08:56:16;;;;;;;82.30;26.60;;;-0.70;99.90;;;;;;4937988;29;20066;-71
2022/12/20 08:58:43;;;;;;;86.43;27.50;;;-0.70;99.90;;;;;;4937804;29;20508;-71
2022/12/20 09:01:20;;;;;;;78.15;23.20;;;-0.70;99.90;;;;;;4939820;29;20055;-71
2022/12/20 09:03:47;;;;;;;86.90;27.60;;;-0.70;99.90;;;;;;4941001;29;20373;-71
2022/12/20 09:06:16;;;;;;;80.75;26.33;;;-0.70;99.90;;;;;;4940348;29;20028;-71
2022/12/20 09:08:42;;;;;;;84.82;26.42;;;-0.70;99.90;;;;;;4950690;29;20059;-71
2022/12/20 09:11:13;;;;;;;75.63;24.08;;;-0.30;99.90;;;;;;4942197;29;20031;-71
2022/12/20 09:13:41;;;;;;;83.95;28.13;;;-0.60;99.90;;;;;;4959422;29;20114;-71
2022/12/20 09:16:08;;;;;;;90.28;27.10;;;-0.70;99.90;;;;;;4956859;29;20150;-71
2022/12/20 09:18:33;;;;;;;84.53;24.98;;;-0.50;99.90;;;;;;4956725;29;20044;-70
2022/12/20 09:21:04;;;;;;;97.07;27.98;;;-0.70;99.90;;;;;;4940278;29;20034;-70
2022/12/20 09:23:31;;;;;;;92.40;25.98;;;-0.70;99.90;;;;;;4956669;29;20046;-70
2022/12/20 09:26:06;;;;;;;78.45;25.05;;;-0.60;99.90;;;;;;4956436;29;20122;-70
2022/12/20 09:28:33;;;;;;;89.70;26.20;;;-0.60;99.90;;;;;;4955957;29;20432;-70
2022/12/20 09:31:00;;;;;;;81.35;24.70;;;-0.70;99.90;;;;;;4956083;29;20058;-70
2022/12/20 09:33:27;;;;;;;78.70;24.38;;;-0.70;99.90;;;;;;4938638;29;20038;-70
2022/12/20 09:35:53;;;;;;;80.05;24.55;;;-0.60;99.90;;;;;;4938779;29;20460;-70
2022/12/20 09:38:19;;;;;;;82.32;27.05;;;-0.60;99.90;;;;;;4956801;29;20032;-73
2022/12/20 09:40:51;;;;;;;81.97;26.38;;;-0.60;99.90;;;;;;4956782;29;20086;-72
2022/12/20 09:43:17;;;;;;;85.63;24.65;;;-0.60;99.90;;;;;;4956099;29;20059;-72
2022/12/20 09:45:47;;;;;;;79.72;23.83;;;-0.60;99.90;;;;;;4955829;29;20027;-70
2022/12/20 09:48:36;;;;;;;74.85;23.33;;;-0.70;99.90;;;;;;4955355;29;20384;-70
2022/12/20 09:51:08;;;;;;;71.82;23.70;;;-0.80;99.90;;;;;;4955730;29;20034;-69
2022/12/20 09:53:42;;;;;;;85.15;25.27;;;-0.70;99.90;;;;;;4938509;29;20030;-70
2022/12/20 09:56:17;;;;;;;83.78;23.33;;;-0.80;99.90;;;;;;4938426;29;20051;-70
2022/12/20 09:58:57;;;;;;;80.05;26.08;;;-0.80;99.90;;;;;;4955712;29;20035;-70
2022/12/20 10:01:25;;;;;;;74.05;24.80;;;-0.80;99.90;;;;;;4955787;29;20031;-70
2022/12/20 10:03:51;;;;;;;77.72;26.65;;;-0.70;99.90;;;;;;4955908;29;20038;-70
2022/12/20 10:06:20;;;;;;;82.75;24.40;;;-0.70;99.90;;;;;;4955591;29;20110;-70
2022/12/20 10:08:51;;;;;;;83.22;23.98;;;-0.70;99.90;;;;;;4955880;29;20055;-71
2022/12/20 10:12:01;;;;;;;78.03;25.05;;;-0.60;99.90;;;;;;4939195;29;20476;-70
2022/12/20 10:14:45;;;;;;;71.68;22.30;;;-0.60;99.90;;;;;;4934417;29;20531;-71
2022/12/20 10:17:23;;;;;;;75.82;22.42;;;-0.60;99.90;;;;;;4942002;29;20031;-71
2022/12/20 10:20:13;;;;;;;77.15;23.60;;;-0.60;99.90;;;;;;4942149;29;20373;-71
2022/12/20 10:22:49;;;;;;;73.22;21.92;;;-0.60;99.90;;;;;;4942306;29;20035;-71
2022/12/20 10:25:17;;;;;;;73.28;22.23;;;-0.60;99.90;;;;;;4959025;29;20503;-71
2022/12/20 10:27:44;;;;;;;77.45;23.70;;;-0.80;99.90;;;;;;4942017;29;20383;-70
2022/12/20 10:30:16;;;;;;;75.03;24.58;;;-0.70;99.90;;;;;;4931752;29;20407;-70
2022/12/20 10:32:49;;;;;;;77.18;23.25;;;-0.70;99.90;;;;;;4923382;29;20036;-70
2022/12/20 10:35:37;;;;;;;64.03;21.52;;;-0.60;99.90;;;;;;4939683;29;20160;-70
2022/12/20 10:38:11;;;;;;;69.35;21.08;;;-0.70;99.90;;;;;;4922701;29;20032;-70
2022/12/20 10:41:03;;;;;;;66.82;22.52;;;-0.80;99.90;;;;;;4923130;29;20155;-70
2022/12/20 10:43:41;;;;;;;80.75;25.00;;;-0.80;99.90;;;;;;4923423;29;20130;-70
2022/12/20 10:46:08;;;;;;;65.88;21.38;;;-0.70;99.90;;;;;;4923966;29;20059;-70
2022/12/20 10:48:39;;;;;;;77.78;23.45;;;-0.70;99.90;;;;;;4923184;29;20055;-70
2022/12/20 10:51:11;;;;;;;66.65;22.90;;;-0.80;99.90;;;;;;4923153;29;20030;-70
2022/12/20 10:53:51;;;;;;;68.18;23.63;;;-0.70;99.90;;;;;;4939475;29;20031;-70
2022/12/20 10:56:18;;;;;;;76.20;24.20;;;-0.70;99.90;;;;;;4939903;29;20114;-70
2022/12/20 10:59:02;;;;;;;67.75;22.95;;;-0.70;99.90;;;;;;4922872;29;20036;-70
2022/12/20 11:01:34;;;;;;;70.40;22.90;;;-0.70;99.90;;;;;;4922634;29;20024;-69
2022/12/20 11:04:02;;;;;;;71.25;22.60;;;-0.60;99.90;;;;;;4939432;29;20055;-75
2022/12/20 11:06:37;;;;;;;71.65;23.35;;;-0.60;99.90;;;;;;4922520;29;20059;-74
2022/12/20 11:09:23;;;;;;;65.22;22.95;;;-0.60;99.90;;;;;;4918873;29;20048;-73
2022/12/20 11:12:18;;;;;;;68.03;22.77;;;-0.70;99.90;;;;;;4920107;29;20028;-74
2022/12/20 11:14:45;;;;;;;71.97;20.55;;;-0.70;99.90;;;;;;4906709;29;20067;-74
2022/12/20 11:17:48;;;;;;;71.03;20.75;;;-0.70;99.90;;;;;;4918783;29;20381;-76
2022/12/20 11:20:46;;;;;;;67.63;21.17;;;-0.70;99.90;;;;;;4919932;29;20426;-74
2022/12/20 11:23:29;;;;;;;75.43;22.02;;;-0.70;99.90;;;;;;4918911;29;20035;-77
2022/12/20 11:26:19;;;;;;;65.65;20.02;;;-0.60;99.90;;;;;;4921756;29;20032;-73
2022/12/20 11:29:21;;;;;;;71.38;21.40;;;-0.60;99.90;;;;;;4944744;29;20524;-75
2022/12/20 11:32:06;;;;;;;70.65;21.23;;;-0.60;99.90;;;;;;4937981;29;20082;-73
2022/12/20 11:34:31;;;;;;;75.80;24.10;;;-0.70;99.90;;;;;;4939439;29;20457;-73
2022/12/20 11:37:06;;;;;;;66.32;21.10;;;-0.60;99.90;;;;;;4937851;29;20036;-72
2022/12/20 11:39:46;;;;;;;75.72;21.83;;;-0.60;99.90;;;;;;4938278;29;20036;-73
2022/12/20 11:42:37;;;;;;;67.00;20.63;;;-0.60;99.90;;;;;;4937713;29;20034;-73
2022/12/20 11:45:14;;;;;;;64.35;20.48;;;-0.60;99.90;;;;;;4938127;29;20461;-73
2022/12/20 11:48:04;;;;;;;65.50;22.15;;;-0.60;99.90;;;;;;4937549;29;20122;-72
2022/12/20 11:51:00;;;;;;;60.78;20.58;;;-0.70;99.90;;;;;;4938921;29;20495;-72
2022/12/20 11:53:31;;;;;;;60.20;20.50;;;-0.60;99.90;;;;;;4935450;29;20044;-72
2022/12/20 11:56:03;;;;;;;61.72;21.08;;;-0.60;99.90;;;;;;4938704;29;20028;-73
2022/12/20 11:58:43;;;;;;;64.85;20.20;;;-0.60;99.90;;;;;;4940176;29;20032;-73
2022/12/20 12:01:16;;;;;;;70.80;20.15;;;-0.60;99.90;;;;;;4939200;29;20376;-71
2022/12/20 12:04:00;;;;;;;65.43;21.13;;;-0.60;99.90;;;;;;4938793;29;20107;-71
2022/12/20 12:06:37;;;;;;;67.22;20.85;;;-0.60;99.90;;;;;;4937540;29;20087;-71
2022/12/20 12:09:28;;;;;;;64.70;22.30;;;-0.60;99.90;;;;;;4938693;29;20056;-71
2022/12/20 12:12:07;;;;;;;72.53;20.92;;;-0.60;99.90;;;;;;4921645;29;20034;-71
2022/12/20 12:14:57;;;;;;;64.75;26.42;;;-0.60;99.90;;;;;;4921374;29;20051;-72
2022/12/20 12:17:45;;;;;;;63.75;19.67;;;-0.50;99.90;;;;;;4938536;29;20039;-72
2022/12/20 12:20:19;;;;;;;62.60;21.38;;;-0.60;99.90;;;;;;4938338;29;20079;-72
2022/12/20 12:22:48;;;;;;;65.93;21.02;;;-0.60;99.90;;;;;;4921280;29;20043;-72
2022/12/20 12:25:17;;;;;;;59.03;18.77;;;-0.60;99.90;;;;;;4938323;29;20078;-72
2022/12/20 12:27:43;;;;;;;;;;;-0.70;99.90;;;;;;4938632;29;20080;-72
2022/12/20 12:30:13;;;;;;;58.08;19.33;;;-0.70;99.90;;;;;;4921060;29;20249;-72
2022/12/20 12:32:53;;;;;;;55.42;19.13;;;-0.70;99.90;;;;;;4938115;29;20035;-71
2022/12/20 12:35:39;;;;;;;57.35;19.23;;;-0.70;99.90;;;;;;4901756;29;20028;-71
2022/12/20 12:38:28;;;;;;;56.80;19.63;;;-0.70;99.90;;;;;;4901704;29;20036;-71
2022/12/20 12:41:22;;;;;;;73.18;20.55;;;-0.70;99.90;;;;;;4916729;29;20515;-71
2022/12/20 12:43:51;;;;;;;59.08;20.80;;;-0.70;99.90;;;;;;4902242;29;20035;-70
2022/12/20 12:46:30;;;;;;;58.88;18.52;;;-0.70;99.90;;;;;;4918884;29;20039;-71
2022/12/20 12:49:11;;;;;;;59.35;19.13;;;-0.70;99.90;;;;;;4918637;29;20024;-71
2022/12/20 12:51:39;;;;;;;58.83;21.27;;;-0.70;99.90;;;;;;4918540;29;20025;-72